createdAt,value
2022-12-25T00:01:47.896Z,5.76
2022-12-25T00:06:52.232Z,5.77
2022-12-25T00:11:55.056Z,5.68
2022-12-25T00:16:57.820Z,5.57
2022-12-25T00:22:02.109Z,5.52
2022-12-25T00:27:05.104Z,5.34
2022-12-25T00:32:08.611Z,5.36
2022-12-25T00:37:12.789Z,5.34
2022-12-25T00:42:21.384Z,5.38
2022-12-25T00:47:24.521Z,5.25
2022-12-25T00:52:28.762Z,5.15
2022-12-25T00:57:31.662Z,5.27
2022-12-25T01:02:34.683Z,5.23
2022-12-25T01:07:38.939Z,5.25
2022-12-25T01:12:43.484Z,5.37
2022-12-25T01:17:46.550Z,5.48
2022-12-25T01:22:50.755Z,5.39
2022-12-25T01:27:53.525Z,5.34
2022-12-25T01:32:56.307Z,5.24
2022-12-25T01:38:00.630Z,5.13
2022-12-25T01:43:03.507Z,5.07
2022-12-25T01:48:11.127Z,4.95
2022-12-25T01:53:15.476Z,4.97
2022-12-25T01:58:19.093Z,4.88
2022-12-25T02:03:23.547Z,4.71
2022-12-25T02:08:28.210Z,4.74
2022-12-25T02:13:31.042Z,4.85
2022-12-25T02:18:42.156Z,4.99
2022-12-25T02:24:10.465Z,5.07
2022-12-25T02:29:22.675Z,4.98
2022-12-25T02:34:32.925Z,4.88
2022-12-25T02:40:01.489Z,4.90
2022-12-25T02:45:23.810Z,4.93
2022-12-25T02:50:44.974Z,4.76
2022-12-25T02:56:08.183Z,4.67
2022-12-25T03:01:34.163Z,4.62
2022-12-25T03:06:44.301Z,4.65
2022-12-25T03:12:00.104Z,4.61
2022-12-25T03:17:04.417Z,4.62
2022-12-25T03:22:28.007Z,4.53
2022-12-25T03:27:34.600Z,4.48
2022-12-25T03:32:46.085Z,4.58
2022-12-25T03:38:17.894Z,4.77
2022-12-25T03:43:48.322Z,4.78
2022-12-25T03:49:18.253Z,4.97
2022-12-25T03:54:45.207Z,5.10
2022-12-25T04:00:05.230Z,5.24
2022-12-25T04:05:30.973Z,5.39
2022-12-25T04:10:51.242Z,5.29
2022-12-25T04:16:11.918Z,5.11
2022-12-25T04:21:34.217Z,5.03
2022-12-25T04:26:54.414Z,5.01
2022-12-25T04:32:14.682Z,5.02
2022-12-25T04:37:18.849Z,4.95
2022-12-25T04:42:21.800Z,4.93
2022-12-25T04:47:25.028Z,4.66
2022-12-25T04:52:29.575Z,4.49
2022-12-25T04:57:32.382Z,4.55
2022-12-25T05:02:35.873Z,4.36
2022-12-25T05:07:40.142Z,4.20
2022-12-25T05:12:43.642Z,4.31
2022-12-25T05:17:46.509Z,4.36
2022-12-25T05:22:52.038Z,4.43
2022-12-25T05:27:54.834Z,4.55
2022-12-25T05:32:57.665Z,4.56
2022-12-25T05:38:01.864Z,4.54
2022-12-25T05:43:04.597Z,4.55
2022-12-25T05:48:07.809Z,4.41
2022-12-25T05:53:14.365Z,4.52
2022-12-25T05:58:17.192Z,4.54
2022-12-25T06:03:20.043Z,4.51
2022-12-25T06:08:24.346Z,4.51
2022-12-25T06:13:27.116Z,4.49
2022-12-25T06:18:29.923Z,4.41
2022-12-25T06:23:34.614Z,4.35
2022-12-25T06:28:38.576Z,4.51
2022-12-25T06:33:42.942Z,4.28
2022-12-25T06:38:47.234Z,4.30
2022-12-25T06:43:50.673Z,4.60
2022-12-25T06:48:54.019Z,4.72
2022-12-25T06:53:58.933Z,4.77
2022-12-25T06:59:03.340Z,4.65
2022-12-25T07:04:08.755Z,4.66
2022-12-25T07:09:12.952Z,4.55
2022-12-25T07:14:23.393Z,4.67
2022-12-25T07:19:26.930Z,4.74
2022-12-25T07:24:31.111Z,4.66
2022-12-25T07:29:33.919Z,4.67
2022-12-25T07:34:36.820Z,4.89
2022-12-25T07:39:40.981Z,5.18
2022-12-25T07:44:43.937Z,5.31
2022-12-25T07:49:46.982Z,5.28
2022-12-25T07:54:51.170Z,5.41
2022-12-25T07:59:53.921Z,5.50
2022-12-25T08:04:57.037Z,5.31
2022-12-25T08:10:01.182Z,5.56
2022-12-25T08:15:04.112Z,5.84
2022-12-25T08:20:08.658Z,5.91
2022-12-25T08:25:12.884Z,5.97
2022-12-25T08:30:15.920Z,5.92
2022-12-25T08:35:18.825Z,6.08
2022-12-25T08:40:23.035Z,6.02
2022-12-25T08:45:31.228Z,6.06
2022-12-25T08:50:37.429Z,5.97
2022-12-25T08:55:43.170Z,6.12
2022-12-25T09:00:45.995Z,6.20
2022-12-25T09:05:48.756Z,6.26
2022-12-25T09:10:52.922Z,6.33
2022-12-25T09:15:55.718Z,6.33
2022-12-25T09:21:00.185Z,6.42
2022-12-25T09:26:06.209Z,6.54
2022-12-25T09:31:09.124Z,6.46
2022-12-25T09:36:12.064Z,6.64
2022-12-25T09:41:21.841Z,6.69
2022-12-25T09:46:34.729Z,6.93
2022-12-25T09:51:41.945Z,6.81
2022-12-25T09:56:46.151Z,6.83
2022-12-25T10:02:02.163Z,6.91
2022-12-25T10:07:17.391Z,7.03
2022-12-25T10:12:38.417Z,7.02
2022-12-25T10:17:56.449Z,7.13
2022-12-25T10:23:02.546Z,7.35
2022-12-25T10:28:14.241Z,7.20
2022-12-25T10:33:22.534Z,7.39
2022-12-25T10:38:25.479Z,7.48
2022-12-25T10:43:36.690Z,7.57
2022-12-25T10:48:42.908Z,7.49
2022-12-25T10:53:45.772Z,7.61
2022-12-25T10:58:49.927Z,7.66
2022-12-25T11:03:53.650Z,7.81
2022-12-25T11:08:59.353Z,7.72
2022-12-25T11:14:04.238Z,7.86
2022-12-25T11:19:27.768Z,7.83
2022-12-25T11:24:32.956Z,7.85
2022-12-25T11:29:44.909Z,8.00
2022-12-25T11:34:49.825Z,7.97
2022-12-25T11:39:52.788Z,7.96
2022-12-25T11:45:02.986Z,7.91
2022-12-25T11:50:15.116Z,7.87
2022-12-25T11:55:22.774Z,7.95
2022-12-25T12:00:28.461Z,7.90
2022-12-25T12:05:36.114Z,7.99
2022-12-25T12:10:51.745Z,8.00
2022-12-25T12:15:56.525Z,8.00
2022-12-25T12:21:01.663Z,8.13
2022-12-25T12:26:05.215Z,8.06
2022-12-25T12:31:10.508Z,7.98
2022-12-25T12:36:15.411Z,7.87
2022-12-25T12:41:19.119Z,7.97
2022-12-25T12:46:30.601Z,8.07
2022-12-25T12:51:35.718Z,8.13
2022-12-25T12:56:39.649Z,8.13
2022-12-25T13:01:52.775Z,8.00
2022-12-25T13:07:05.199Z,8.22
2022-12-25T13:12:09.389Z,8.25
2022-12-25T13:17:19.386Z,8.14
2022-12-25T13:22:27.536Z,8.15
2022-12-25T13:27:32.542Z,8.01
2022-12-25T13:32:36.933Z,8.05
2022-12-25T13:37:39.937Z,8.01
2022-12-25T13:42:48.046Z,8.05
2022-12-25T13:47:55.684Z,8.07
2022-12-25T13:53:11.178Z,8.06
2022-12-25T13:58:26.058Z,7.95
2022-12-25T14:03:35.838Z,7.82
2022-12-25T14:08:38.916Z,7.96
2022-12-25T14:13:43.814Z,7.86
2022-12-25T14:18:56.202Z,7.84
2022-12-25T14:23:59.551Z,7.84
2022-12-25T14:29:16.832Z,7.75
2022-12-25T14:34:24.046Z,7.71
2022-12-25T14:39:31.918Z,7.63
2022-12-25T14:44:36.820Z,7.64
2022-12-25T14:49:41.282Z,7.64
2022-12-25T14:54:47.754Z,7.64
2022-12-25T14:59:57.808Z,7.64
2022-12-25T15:05:01.903Z,7.66
2022-12-25T15:10:57.564Z,7.77
2022-12-25T15:15:34.794Z,7.78
2022-12-25T15:20:39.071Z,7.63
2022-12-25T15:25:41.848Z,7.62
2022-12-25T15:30:44.929Z,7.71
2022-12-25T15:35:49.114Z,7.63
2022-12-25T15:40:52.695Z,7.49
2022-12-25T15:45:55.571Z,7.63
2022-12-25T15:51:00.189Z,7.57
2022-12-25T15:56:02.926Z,7.56
2022-12-25T16:01:06.050Z,7.39
2022-12-25T16:06:12.735Z,7.32
2022-12-25T16:11:15.473Z,7.41
2022-12-25T16:16:19.198Z,7.38
2022-12-25T16:21:24.046Z,7.43
2022-12-25T16:26:27.671Z,7.52
2022-12-25T16:31:30.701Z,7.40
2022-12-25T16:36:35.832Z,7.47
2022-12-25T16:41:39.013Z,7.44
2022-12-25T16:46:42.116Z,7.33
2022-12-25T16:51:46.328Z,7.30
2022-12-25T16:56:49.130Z,7.30
2022-12-25T17:01:52.018Z,7.27
2022-12-25T17:06:56.828Z,7.22
2022-12-25T17:11:59.729Z,7.17
2022-12-25T17:17:03.408Z,7.24
2022-12-25T17:22:07.623Z,7.22
2022-12-25T17:27:10.657Z,7.24
2022-12-25T17:32:13.891Z,7.26
2022-12-25T17:37:18.111Z,7.36
2022-12-25T17:42:21.263Z,7.28
2022-12-25T17:47:24.189Z,7.25
2022-12-25T17:52:28.386Z,7.30
2022-12-25T17:57:31.411Z,7.30
2022-12-25T18:02:34.415Z,7.21
2022-12-25T18:07:38.684Z,7.31
2022-12-25T18:12:43.795Z,7.41
2022-12-25T18:17:46.621Z,7.35
2022-12-25T18:22:50.775Z,7.34
2022-12-25T18:27:53.893Z,7.33
2022-12-25T18:32:56.641Z,7.34
2022-12-25T18:38:00.792Z,7.26
2022-12-25T18:43:04.361Z,7.25
2022-12-25T18:48:07.270Z,7.28
2022-12-25T18:53:11.402Z,7.26
2022-12-25T18:58:14.214Z,7.27
2022-12-25T19:03:17.048Z,7.30
2022-12-25T19:08:21.186Z,7.24
2022-12-25T19:13:24.129Z,7.47
2022-12-25T19:18:26.996Z,7.49
2022-12-25T19:23:31.236Z,7.46
2022-12-25T19:28:34.193Z,7.44
2022-12-25T19:33:38.417Z,7.54
2022-12-25T19:38:47.137Z,7.47
2022-12-25T19:43:53.488Z,7.60
2022-12-25T19:48:57.658Z,7.65
2022-12-25T19:54:04.307Z,7.59
2022-12-25T19:59:08.093Z,7.58
2022-12-25T20:04:11.584Z,7.58
2022-12-25T20:09:21.056Z,7.54
2022-12-25T20:14:24.535Z,7.54
2022-12-25T20:19:27.335Z,7.51
2022-12-25T20:24:34.318Z,7.50
2022-12-25T20:29:38.354Z,7.41
2022-12-25T20:34:43.053Z,7.31
2022-12-25T20:39:47.265Z,7.47
2022-12-25T20:44:50.624Z,7.50
2022-12-25T20:49:58.291Z,7.51
2022-12-25T20:55:05.479Z,7.47
2022-12-25T21:00:09.682Z,7.46
2022-12-25T21:05:13.217Z,7.37
2022-12-25T21:10:17.524Z,7.48
2022-12-25T21:15:20.582Z,7.50
2022-12-25T21:20:23.418Z,7.51
2022-12-25T21:25:30.879Z,7.43
2022-12-25T21:30:36.336Z,7.45
2022-12-25T21:35:42.061Z,7.45
2022-12-25T21:40:46.289Z,7.04
2022-12-25T21:45:51.754Z,6.94
2022-12-25T21:51:12.291Z,7.05
2022-12-25T21:56:19.393Z,6.98
2022-12-25T22:01:26.589Z,7.05
2022-12-25T22:06:50.088Z,7.08
2022-12-25T22:12:11.994Z,7.37
2022-12-25T22:17:34.577Z,7.29
2022-12-25T22:22:37.779Z,7.37
2022-12-25T22:27:43.440Z,7.28
2022-12-25T22:32:47.230Z,7.19
2022-12-25T22:37:53.363Z,7.12
2022-12-25T22:42:57.988Z,7.25
2022-12-25T22:48:00.693Z,7.34
2022-12-25T22:53:03.550Z,7.40
2022-12-25T22:58:07.618Z,7.50
2022-12-25T23:03:10.763Z,7.47
2022-12-25T23:08:13.686Z,7.37
2022-12-25T23:13:35.539Z,7.36
2022-12-25T23:18:55.859Z,7.26
2022-12-25T23:24:16.195Z,7.37
2022-12-25T23:29:40.359Z,7.40
2022-12-25T23:34:44.545Z,7.41
2022-12-25T23:39:47.904Z,7.19
2022-12-25T23:44:52.085Z,6.95
2022-12-25T23:49:55.382Z,6.72
2022-12-25T23:54:58.228Z,6.74
